Time;durP1;ratioP1;P1;durP2;ratioP2;P2;SDS_P1;SDS_P2;PMS_P1;PMS_P2;Temp;Humidity;BMP_temperature;BMP_pressure;BME280_temperature;BME280_humidity;BME280_pressure;Samples;Min_cycle;Max_cycle;Signal;HPM_P1;HPM_P2
2022/02/07 00:01:00;;;;;;;6.72;1.60;;;6.70;99.90;;;;;;5013078;28;20176;-85
2022/02/07 00:05:55;;;;;;;8.52;1.65;;;6.60;99.90;;;;;;5012919;28;20187;-83
2022/02/07 00:08:21;;;;;;;10.98;1.70;;;6.50;99.90;;;;;;5013251;28;20194;-86
2022/02/07 00:10:47;;;;;;;4.05;1.55;;;6.40;99.90;;;;;;5012317;28;20196;-86
2022/02/07 00:13:12;;;;;;;11.55;2.08;;;6.30;99.90;;;;;;5012066;28;20206;-85
2022/02/07 00:15:38;;;;;;;8.40;1.85;;;6.30;99.90;;;;;;5012785;28;20176;-83
2022/02/07 00:18:05;;;;;;;6.15;1.60;;;6.30;99.90;;;;;;5012537;28;20183;-81
2022/02/07 00:20:31;;;;;;;6.90;1.27;;;6.30;99.90;;;;;;5012405;28;20383;-78
2022/02/07 00:22:57;;;;;;;10.38;1.02;;;6.40;99.90;;;;;;5012376;28;20324;-83
2022/02/07 00:25:23;;;;;;;9.23;1.30;;;6.50;99.90;;;;;;5014787;28;20168;-85
2022/02/07 00:27:49;;;;;;;9.25;1.52;;;6.50;99.90;;;;;;5016219;28;20526;-78
2022/02/07 00:30:17;;;;;;;11.18;1.90;;;6.40;99.90;;;;;;5015962;28;20207;-78
2022/02/07 00:32:43;;;;;;;6.57;1.13;;;6.50;99.90;;;;;;5015687;28;20185;-83
2022/02/07 00:35:14;;;;;;;9.77;1.63;;;6.50;99.90;;;;;;4998473;28;20169;-80
2022/02/07 00:37:43;;;;;;;19.90;1.95;;;6.50;99.90;;;;;;5016127;28;20168;-81
2022/02/07 00:42:53;;;;;;;11.23;1.30;;;6.40;99.90;;;;;;5015978;28;20230;-78
2022/02/07 00:48:00;;;;;;;11.18;1.27;;;6.30;99.90;;;;;;5016080;28;20235;-85
2022/02/07 00:50:27;;;;;;;9.13;1.52;;;6.20;99.90;;;;;;5016478;28;20644;-86
2022/02/07 00:52:52;;;;;;;11.68;2.33;;;6.20;99.90;;;;;;5016015;28;20204;-85
2022/02/07 00:55:18;;;;;;;12.10;1.92;;;6.20;99.90;;;;;;5016644;28;20172;-83
2022/02/07 00:57:46;;;;;;;6.78;1.23;;;6.10;99.90;;;;;;5016409;28;20228;-83
2022/02/07 01:00:12;;;;;;;6.68;1.52;;;6.10;99.90;;;;;;5016354;28;20681;-86
2022/02/07 01:02:38;;;;;;;5.88;1.30;;;6.10;99.90;;;;;;5015915;28;20189;-83
2022/02/07 01:05:05;;;;;;;7.15;1.58;;;6.10;99.90;;;;;;5016084;28;20169;-86
2022/02/07 01:07:31;;;;;;;12.43;1.83;;;6.00;99.90;;;;;;5016384;28;20168;-86
2022/02/07 01:09:58;;;;;;;9.27;1.33;;;6.00;99.90;;;;;;5016122;28;20164;-85
2022/02/07 01:12:59;;;;;;;5.68;1.40;;;6.00;99.90;;;;;;5015773;28;20243;-85
2022/02/07 01:15:54;;;;;;;5.70;1.00;;;6.00;99.90;;;;;;5015634;28;20215;-85
2022/02/07 01:24:00;;;;;;;7.15;2.15;;;5.90;99.90;;;;;;5015990;28;20192;-87
2022/02/07 01:53:39;;;;;;;6.50;1.65;;;5.70;99.90;;;;;;5119170;28;20304;-82
2022/02/07 01:56:07;;;;;;;7.25;1.38;;;5.70;99.90;;;;;;5109235;28;20169;-82
2022/02/07 01:58:33;;;;;;;8.00;2.45;;;5.70;99.90;;;;;;5097406;28;20249;-79
2022/02/07 02:00:59;;;;;;;7.78;1.55;;;5.70;99.90;;;;;;5097429;28;20198;-88
2022/02/07 02:03:24;;;;;;;3.80;1.25;;;5.70;99.90;;;;;;5097425;28;20181;-85
2022/02/07 02:05:55;;;;;;;11.25;1.83;;;5.70;99.90;;;;;;5095572;28;20169;-88
2022/02/07 02:08:20;;;;;;;10.70;1.27;;;5.60;99.90;;;;;;5098565;28;20556;-89
2022/02/07 02:10:50;;;;;;;2.00;0.98;;;5.60;99.90;;;;;;5097628;28;20178;-81
2022/02/07 02:13:21;;;;;;;10.52;1.40;;;5.60;99.90;;;;;;5096581;28;20212;-82
2022/02/07 02:16:05;;;;;;;4.38;1.13;;;5.60;99.90;;;;;;5094381;28;20177;-88
2022/02/07 02:37:31;;;;;;;11.75;1.42;;;6.00;99.90;;;;;;5094993;28;20241;-79
2022/02/07 02:45:33;;;;;;;6.68;1.50;;;6.10;99.90;;;;;;5094852;28;20180;-79
2022/02/07 02:48:08;;;;;;;8.73;2.25;;;6.10;99.90;;;;;;5094246;28;20189;-81
2022/02/07 02:50:36;;;;;;;5.00;1.52;;;6.10;99.90;;;;;;5093999;28;20179;-81
2022/02/07 02:53:07;;;;;;;6.47;0.90;;;6.00;99.90;;;;;;5095282;28;20206;-79
2022/02/07 02:55:35;;;;;;;9.60;1.45;;;6.00;99.90;;;;;;5095751;28;20162;-80
2022/02/07 02:58:01;;;;;;;7.10;1.30;;;6.00;99.90;;;;;;5094124;28;20525;-80
2022/02/07 03:00:28;;;;;;;5.30;1.42;;;6.00;99.90;;;;;;5095610;28;20253;-79
2022/02/07 03:02:54;;;;;;;6.50;1.52;;;6.20;99.90;;;;;;5110954;28;20174;-79
2022/02/07 03:05:20;;;;;;;6.20;1.35;;;6.20;99.90;;;;;;5114374;28;20203;-78
2022/02/07 03:07:46;;;;;;;6.93;1.10;;;6.20;99.90;;;;;;5115929;28;20189;-78
2022/02/07 03:10:23;;;;;;;4.60;1.52;;;6.00;99.90;;;;;;5116657;28;20178;-79
2022/02/07 03:13:15;;;;;;;10.25;1.45;;;6.00;99.90;;;;;;5115474;28;20203;-81
2022/02/07 03:18:26;;;;;;;8.20;0.98;;;5.90;99.90;;;;;;5096143;28;20168;-87
2022/02/07 03:20:52;;;;;;;2.50;1.30;;;6.00;99.90;;;;;;5096238;28;20206;-88
2022/02/07 03:23:18;;;;;;;7.22;0.95;;;6.00;99.90;;;;;;5096315;28;20194;-78
2022/02/07 03:25:44;;;;;;;13.18;1.92;;;5.90;99.90;;;;;;5096162;28;20298;-87
2022/02/07 03:28:10;;;;;;;7.38;1.42;;;5.80;99.90;;;;;;5097393;28;20201;-87
2022/02/07 03:30:36;;;;;;;10.07;1.67;;;5.70;99.90;;;;;;5096845;28;20625;-87
2022/02/07 03:33:03;;;;;;;9.02;1.60;;;5.80;99.90;;;;;;5096989;28;20216;-88
2022/02/07 03:35:29;;;;;;;11.68;1.40;;;5.80;99.90;;;;;;5095990;28;20172;-87
2022/02/07 03:37:54;;;;;;;5.82;1.25;;;5.80;99.90;;;;;;5096593;28;20162;-85
2022/02/07 03:40:20;;;;;;;9.50;1.02;;;5.70;99.90;;;;;;5094505;28;20178;-89
2022/02/07 03:42:45;;;;;;;5.95;1.77;;;5.60;99.90;;;;;;5093733;28;20182;-88
2022/02/07 03:45:11;;;;;;;6.65;2.22;;;5.60;99.90;;;;;;5093075;28;20193;-88
2022/02/07 03:47:37;;;;;;;8.57;1.27;;;5.60;99.90;;;;;;5093815;28;20204;-86
2022/02/07 03:50:04;;;;;;;4.38;1.77;;;5.50;99.90;;;;;;5093453;28;20170;-88
2022/02/07 03:52:30;;;;;;;7.85;1.55;;;5.40;99.90;;;;;;5093323;28;20189;-86
2022/02/07 03:54:56;;;;;;;6.82;1.65;;;5.40;99.90;;;;;;5093855;28;20201;-87
2022/02/07 03:57:21;;;;;;;7.22;1.58;;;5.40;99.90;;;;;;5094005;28;20173;-86
2022/02/07 03:59:47;;;;;;;12.63;1.30;;;5.60;99.90;;;;;;5097463;28;20178;-87
2022/02/07 04:02:13;;;;;;;14.27;1.17;;;5.60;99.90;;;;;;5097759;28;20641;-87
2022/02/07 04:04:40;;;;;;;13.93;1.67;;;5.40;99.90;;;;;;5097622;28;20211;-76
2022/02/07 04:07:08;;;;;;;7.57;1.02;;;5.50;99.90;;;;;;5097328;28;20162;-78
2022/02/07 04:09:39;;;;;;;9.23;1.88;;;5.40;99.90;;;;;;5096917;28;20226;-79
2022/02/07 04:12:11;;;;;;;7.53;1.25;;;5.30;99.90;;;;;;5095964;28;20186;-87
2022/02/07 04:14:37;;;;;;;16.08;1.65;;;5.30;99.90;;;;;;5097333;28;20256;-88
2022/02/07 04:17:03;;;;;;;6.82;1.33;;;5.30;99.90;;;;;;5096791;28;20658;-87
2022/02/07 04:19:34;;;;;;;13.52;2.25;;;5.30;99.90;;;;;;5096945;28;20178;-87
2022/02/07 04:22:02;;;;;;;8.15;1.58;;;5.30;99.90;;;;;;5098031;28;20161;-88
2022/02/07 04:24:28;;;;;;;8.52;1.58;;;5.30;99.90;;;;;;5114886;28;20237;-78
2022/02/07 04:26:53;;;;;;;3.05;1.15;;;5.20;99.90;;;;;;5118496;28;20169;-83
2022/02/07 04:29:19;;;;;;;8.55;1.77;;;5.20;99.90;;;;;;5120844;28;20165;-84
2022/02/07 04:31:45;;;;;;;10.30;1.55;;;5.20;99.90;;;;;;5099558;28;20170;-87
2022/02/07 04:34:10;;;;;;;7.45;1.15;;;5.20;99.90;;;;;;5097472;28;20206;-87
2022/02/07 04:36:38;;;;;;;15.80;1.83;;;5.10;99.90;;;;;;5097279;28;20158;-87
2022/02/07 04:39:03;;;;;;;3.55;1.27;;;5.10;99.90;;;;;;5096935;28;20157;-88
2022/02/07 04:41:29;;;;;;;19.38;1.67;;;5.20;99.90;;;;;;5096763;28;20542;-86
2022/02/07 04:44:01;;;;;;;10.98;1.50;;;5.20;99.90;;;;;;5097343;28;20186;-87
2022/02/07 05:03:39;;;;;;;4.25;1.00;;;4.90;99.90;;;;;;5079483;28;20201;-78
2022/02/07 05:14:20;;;;;;;13.10;1.35;;;5.10;99.90;;;;;;5103212;28;20917;-88
2022/02/07 05:16:48;;;;;;;6.00;1.17;;;5.00;99.90;;;;;;5104475;28;20252;-81
2022/02/07 05:19:14;;;;;;;8.52;1.40;;;5.00;99.90;;;;;;5101008;28;20719;-82
2022/02/07 05:21:45;;;;;;;3.50;1.27;;;5.00;99.90;;;;;;5085442;28;20184;-82
2022/02/07 05:24:11;;;;;;;2.00;0.88;;;4.90;99.90;;;;;;5101713;28;20232;-84
2022/02/07 05:26:44;;;;;;;2.38;1.30;;;4.90;99.90;;;;;;5103044;28;20229;-79
2022/02/07 05:29:10;;;;;;;7.53;1.48;;;4.90;99.90;;;;;;5107166;28;20245;-79
2022/02/07 05:31:35;;;;;;;4.18;1.23;;;4.90;99.90;;;;;;5106717;28;20803;-88
2022/02/07 05:34:02;;;;;;;8.82;1.40;;;4.90;99.90;;;;;;5105370;28;20271;-79
2022/02/07 05:36:28;;;;;;;13.35;2.00;;;4.90;99.90;;;;;;5103475;28;20192;-79
2022/02/07 05:38:58;;;;;;;3.15;1.40;;;4.90;99.90;;;;;;5102886;28;20230;-78
2022/02/07 05:41:23;;;;;;;16.23;1.55;;;4.90;99.90;;;;;;5102269;28;20174;-87
2022/02/07 05:43:51;;;;;;;5.20;1.38;;;5.00;99.90;;;;;;5099962;28;20200;-84
2022/02/07 05:46:17;;;;;;;11.48;1.60;;;5.00;99.90;;;;;;5096200;28;20181;-83
2022/02/07 05:48:43;;;;;;;2.25;1.20;;;4.90;99.90;;;;;;5094605;28;20238;-77
2022/02/07 05:51:09;;;;;;;7.03;1.05;;;4.90;99.90;;;;;;5093280;28;20197;-78
2022/02/07 05:53:35;;;;;;;6.55;1.50;;;4.90;99.90;;;;;;5094354;28;20206;-79
2022/02/07 05:56:01;;;;;;;12.65;1.48;;;4.90;99.90;;;;;;5094628;28;20169;-78
2022/02/07 05:58:28;;;;;;;6.03;1.20;;;4.90;99.90;;;;;;5094675;28;20158;-77
2022/02/07 06:00:54;;;;;;;5.55;1.58;;;5.00;99.90;;;;;;5093339;28;20185;-88
2022/02/07 06:03:20;;;;;;;5.78;1.88;;;5.00;99.90;;;;;;5094579;28;20200;-78
2022/02/07 06:05:45;;;;;;;4.43;1.77;;;5.00;99.90;;;;;;5094224;28;20257;-78
2022/02/07 06:08:11;;;;;;;3.53;0.95;;;5.00;99.90;;;;;;5093929;28;20201;-85
2022/02/07 06:10:37;;;;;;;4.40;1.45;;;5.10;99.90;;;;;;5094253;28;20194;-77
2022/02/07 06:13:02;;;;;;;6.00;1.88;;;5.20;99.90;;;;;;5094010;28;20201;-80
2022/02/07 06:15:28;;;;;;;10.02;1.98;;;5.20;99.90;;;;;;5093879;28;20181;-79
2022/02/07 06:17:57;;;;;;;11.25;1.52;;;5.10;99.90;;;;;;5093387;28;20150;-89
2022/02/07 06:20:24;;;;;;;17.73;2.33;;;5.20;99.90;;;;;;5094223;28;20173;-81
2022/02/07 06:22:50;;;;;;;4.95;1.67;;;5.30;99.90;;;;;;5094203;28;20720;-83
2022/02/07 06:25:15;;;;;;;6.28;1.55;;;5.30;99.90;;;;;;5094095;28;20204;-78
2022/02/07 06:27:41;;;;;;;2.88;1.52;;;5.40;99.90;;;;;;5094618;28;20174;-86
2022/02/07 06:30:07;;;;;;;7.32;1.65;;;5.40;99.90;;;;;;5093169;28;20351;-88
2022/02/07 06:32:33;;;;;;;4.30;1.50;;;5.40;99.90;;;;;;5093625;28;20200;-79
2022/02/07 06:34:59;;;;;;;5.07;1.63;;;5.40;99.90;;;;;;5092324;28;20226;-79
2022/02/07 06:37:24;;;;;;;7.05;1.25;;;5.40;99.90;;;;;;5093922;28;20223;-82
2022/02/07 06:39:50;;;;;;;8.52;1.25;;;5.50;99.90;;;;;;5094051;28;20569;-83
2022/02/07 06:42:17;;;;;;;4.20;1.55;;;5.60;99.90;;;;;;5093730;28;20186;-86
2022/02/07 06:44:43;;;;;;;3.78;1.40;;;5.60;99.90;;;;;;5095890;28;20603;-88
2022/02/07 06:47:09;;;;;;;10.30;1.88;;;5.60;99.90;;;;;;5095442;28;20158;-83
2022/02/07 06:49:34;;;;;;;6.63;1.40;;;5.60;99.90;;;;;;5095310;28;20165;-85
2022/02/07 06:52:00;;;;;;;4.15;1.13;;;5.60;99.90;;;;;;5094752;28;20212;-86
2022/02/07 06:54:26;;;;;;;19.02;2.58;;;5.50;99.90;;;;;;5094931;28;20251;-86
2022/02/07 06:56:52;;;;;;;9.77;1.60;;;5.50;99.90;;;;;;5094447;28;20162;-84
2022/02/07 06:59:19;;;;;;;9.48;1.75;;;5.50;99.90;;;;;;5100960;28;20158;-82
2022/02/07 07:01:45;;;;;;;9.13;1.33;;;5.50;99.90;;;;;;5107266;28;20180;-83
2022/02/07 07:04:11;;;;;;;6.18;1.63;;;5.60;99.90;;;;;;5117565;28;20165;-80
2022/02/07 07:06:40;;;;;;;7.38;1.00;;;5.50;99.90;;;;;;5101344;28;20189;-85
2022/02/07 07:09:09;;;;;;;7.13;1.95;;;5.60;99.90;;;;;;5094148;28;20161;-85
2022/02/07 07:11:35;;;;;;;7.20;1.67;;;5.70;99.90;;;;;;5093693;28;20165;-83
2022/02/07 07:14:11;;;;;;;9.30;1.58;;;5.80;99.90;;;;;;5093993;28;20742;-84
2022/02/07 07:16:40;;;;;;;13.32;2.20;;;5.90;99.90;;;;;;5093668;28;20203;-87
2022/02/07 07:19:06;;;;;;;12.10;1.33;;;5.80;99.90;;;;;;5072763;28;20170;-80
2022/02/07 07:21:32;;;;;;;9.52;1.80;;;5.80;99.90;;;;;;5085470;28;20552;-79
2022/02/07 07:23:59;;;;;;;5.57;0.98;;;5.90;99.90;;;;;;5079264;28;20198;-79
2022/02/07 07:26:26;;;;;;;15.68;2.58;;;6.00;99.90;;;;;;5083256;28;20155;-80
2022/02/07 07:28:54;;;;;;;3.60;1.40;;;5.90;99.90;;;;;;5085867;28;20167;-78
2022/02/07 07:31:23;;;;;;;8.90;1.40;;;5.80;99.90;;;;;;5056775;28;20174;-77
2022/02/07 07:33:52;;;;;;;6.63;1.52;;;5.80;99.90;;;;;;5058110;28;20210;-78
2022/02/07 07:36:18;;;;;;;11.45;2.95;;;5.70;99.90;;;;;;5054015;28;20517;-78
2022/02/07 07:38:43;;;;;;;16.85;1.35;;;5.70;99.90;;;;;;5051326;28;20164;-78
2022/02/07 07:41:11;;;;;;;7.38;1.58;;;5.90;99.90;;;;;;5051704;28;20679;-81
2022/02/07 07:43:37;;;;;;;4.43;1.35;;;6.00;99.90;;;;;;5051422;28;20579;-79
2022/02/07 07:46:06;;;;;;;7.68;1.42;;;6.00;99.90;;;;;;5050773;28;20221;-79
2022/02/07 07:48:33;;;;;;;1.95;1.30;;;6.00;99.90;;;;;;5052108;28;20155;-83
2022/02/07 07:53:44;;;;;;;18.63;1.58;;;5.90;99.90;;;;;;5063344;28;20207;-77
2022/02/07 08:01:45;;;;;;;10.60;1.35;;;6.00;99.90;;;;;;5052004;28;20270;-79
2022/02/07 08:04:13;;;;;;;4.00;1.15;;;5.90;99.90;;;;;;5057592;28;20213;-78
2022/02/07 08:06:45;;;;;;;3.83;1.63;;;6.00;99.90;;;;;;5070605;28;20167;-80
2022/02/07 08:09:19;;;;;;;9.98;2.28;;;6.00;99.90;;;;;;5052197;28;20179;-77
2022/02/07 08:11:46;;;;;;;11.98;2.85;;;6.00;99.90;;;;;;5050833;28;20627;-83
2022/02/07 08:14:11;;;;;;;14.15;3.55;;;6.10;99.90;;;;;;5052462;28;20254;-82
2022/02/07 08:16:37;;;;;;;9.07;1.92;;;6.20;99.90;;;;;;5052707;28;20194;-81
2022/02/07 08:19:07;;;;;;;14.77;1.98;;;6.30;99.90;;;;;;5071829;28;20175;-84
2022/02/07 08:21:34;;;;;;;11.82;2.10;;;6.30;99.90;;;;;;5056779;28;20225;-80
2022/02/07 08:24:00;;;;;;;34.60;4.07;;;6.40;99.90;;;;;;5052548;28;20221;-83
2022/02/07 08:26:26;;;;;;;11.90;2.03;;;6.50;99.90;;;;;;5052476;28;20195;-80
2022/02/07 08:28:51;;;;;;;13.70;2.20;;;6.50;99.90;;;;;;5060415;28;20170;-79
2022/02/07 08:31:17;;;;;;;5.25;1.40;;;6.50;99.90;;;;;;5069957;28;20174;-83
2022/02/07 08:33:43;;;;;;;6.70;1.23;;;6.70;99.90;;;;;;5072349;28;20202;-81
2022/02/07 08:36:09;;;;;;;9.02;1.50;;;6.70;99.90;;;;;;5069964;28;20493;-84
2022/02/07 08:38:34;;;;;;;6.57;1.67;;;6.80;99.90;;;;;;5054847;28;20187;-83
2022/02/07 08:41:01;;;;;;;9.50;2.45;;;6.80;99.90;;;;;;5052565;28;20190;-81
2022/02/07 08:43:26;;;;;;;8.95;1.85;;;6.90;99.90;;;;;;5050796;28;20279;-82
2022/02/07 08:45:52;;;;;;;22.23;2.80;;;6.80;99.90;;;;;;5069203;28;20248;-83
2022/02/07 08:48:18;;;;;;;12.07;2.42;;;6.80;99.90;;;;;;5074073;28;20292;-83
2022/02/07 08:50:45;;;;;;;9.98;3.63;;;6.70;99.90;;;;;;5092170;28;20512;-83
2022/02/07 08:53:12;;;;;;;4.68;2.35;;;6.70;99.90;;;;;;5072599;28;20213;-84
2022/02/07 08:55:41;;;;;;;6.30;4.05;;;6.60;99.90;;;;;;5054647;28;20167;-83
2022/02/07 08:58:16;;;;;;;5.95;4.50;;;6.50;99.90;;;;;;5056067;28;20167;-81
2022/02/07 09:08:49;;;;;;;6.40;2.15;;;6.40;99.90;;;;;;5055582;28;20173;-80
2022/02/07 09:11:15;;;;;;;6.35;1.40;;;6.50;99.90;;;;;;5052972;28;20388;-83
2022/02/07 09:13:43;;;;;;;13.60;1.67;;;6.50;99.90;;;;;;5062337;28;20203;-84
2022/02/07 09:18:37;;;;;;;5.53;1.85;;;6.50;99.90;;;;;;5057599;28;20183;-82
2022/02/07 09:21:06;;;;;;;2.35;1.52;;;6.40;99.90;;;;;;5075239;28;20174;-82
2022/02/07 09:23:33;;;;;;;3.65;1.50;;;6.50;99.90;;;;;;5090710;28;20178;-80
2022/02/07 09:25:59;;;;;;;2.72;1.30;;;6.60;99.90;;;;;;5074788;28;20158;-84
2022/02/07 09:28:24;;;;;;;11.65;2.47;;;6.60;99.90;;;;;;5070200;28;20182;-78
2022/02/07 09:30:52;;;;;;;4.03;1.30;;;6.70;99.90;;;;;;5055336;28;20183;-79
2022/02/07 09:33:19;;;;;;;15.00;2.60;;;6.70;99.90;;;;;;5054523;28;20538;-81
2022/02/07 09:35:45;;;;;;;8.82;1.42;;;6.80;99.90;;;;;;5054314;28;20190;-77
2022/02/07 09:38:11;;;;;;;9.65;2.53;;;6.90;99.90;;;;;;5055185;28;20855;-85
2022/02/07 09:40:38;;;;;;;9.85;2.03;;;6.90;99.90;;;;;;5053933;28;20229;-79
2022/02/07 09:43:05;;;;;;;3.10;1.40;;;6.80;99.90;;;;;;5054371;28;20230;-78
2022/02/07 09:45:40;;;;;;;13.63;1.77;;;6.70;99.90;;;;;;5070731;28;20571;-78
2022/02/07 09:48:10;;;;;;;13.73;1.65;;;6.80;99.90;;;;;;5054486;28;20220;-80
2022/02/07 09:50:38;;;;;;;9.88;1.92;;;6.90;99.90;;;;;;5054117;28;20164;-79
2022/02/07 09:53:04;;;;;;;5.63;1.48;;;6.90;99.90;;;;;;5071268;28;20690;-79
2022/02/07 09:55:31;;;;;;;3.72;1.02;;;7.00;99.90;;;;;;5074214;28;20654;-89
2022/02/07 09:57:57;;;;;;;8.55;1.73;;;7.10;99.90;;;;;;5073882;28;20653;-89
2022/02/07 10:00:30;;;;;;;3.30;1.25;;;7.10;99.90;;;;;;5074576;28;20154;-82
2022/02/07 10:03:26;;;;;;;12.23;2.08;;;7.10;99.90;;;;;;5073842;28;20193;-88
2022/02/07 10:05:56;;;;;;;10.95;1.48;;;7.10;99.90;;;;;;5074128;28;20201;-86
2022/02/07 10:11:32;;;;;;;4.88;2.03;;;7.10;99.90;;;;;;5073295;28;20166;-89
2022/02/07 10:18:55;;;;;;;6.68;1.92;;;7.10;99.90;;;;;;5054196;28;20232;-81
2022/02/07 10:37:55;;;;;;;9.15;1.42;;;7.40;99.90;;;;;;5072252;28;20281;-77
2022/02/07 10:40:31;;;;;;;6.20;1.40;;;7.30;99.90;;;;;;5072325;28;20167;-77
2022/02/07 10:45:51;;;;;;;6.57;1.38;;;7.20;99.90;;;;;;5054863;28;20182;-78
2022/02/07 10:48:37;;;;;;;7.70;2.25;;;7.20;99.90;;;;;;5081100;28;20213;-80
2022/02/07 10:51:11;;;;;;;13.13;1.58;;;7.40;99.90;;;;;;5050902;28;20174;-77
2022/02/07 10:53:39;;;;;;;15.95;1.38;;;7.40;99.90;;;;;;5052100;28;20213;-77
2022/02/07 10:56:06;;;;;;;11.25;1.50;;;7.50;99.90;;;;;;5048976;28;20175;-88
2022/02/07 10:58:31;;;;;;;11.13;1.52;;;7.40;99.90;;;;;;5059426;28;20201;-79
2022/02/07 11:01:07;;;;;;;8.65;1.40;;;7.40;99.90;;;;;;5071955;28;20634;-81
2022/02/07 11:03:39;;;;;;;2.95;1.90;;;7.50;99.90;;;;;;5070592;28;20527;-80
2022/02/07 11:06:07;;;;;;;1.83;1.08;;;7.50;99.90;;;;;;5068106;28;20163;-79
2022/02/07 11:16:44;;;;;;;8.40;1.45;;;7.80;99.90;;;;;;5049994;28;20656;-80
2022/02/07 11:25:41;;;;;;;9.63;1.77;;;7.80;99.90;;;;;;5050031;28;20194;-81
2022/02/07 11:28:17;;;;;;;5.53;1.15;;;7.70;99.90;;;;;;5051999;28;20159;-81
2022/02/07 11:30:48;;;;;;;8.20;1.52;;;7.90;99.90;;;;;;5050919;28;20620;-81
2022/02/07 11:33:39;;;;;;;8.88;1.92;;;7.80;99.90;;;;;;5050240;28;20187;-81
2022/02/07 11:36:21;;;;;;;7.55;2.03;;;7.80;99.90;;;;;;5051487;28;20248;-78
2022/02/07 11:39:05;;;;;;;10.35;1.88;;;7.80;99.90;;;;;;5050660;28;20200;-86
2022/02/07 11:41:53;;;;;;;10.02;1.98;;;7.80;99.90;;;;;;5051773;28;20171;-81
2022/02/07 11:44:38;;;;;;;5.45;1.73;;;7.80;99.90;;;;;;5051563;28;20206;-81
2022/02/07 11:47:17;;;;;;;12.48;1.60;;;7.90;99.90;;;;;;5051128;28;20171;-79
2022/02/07 11:49:50;;;;;;;6.70;2.20;;;8.10;99.90;;;;;;5052190;28;20217;-82
2022/02/07 11:52:42;;;;;;;8.15;1.92;;;8.20;99.90;;;;;;5052239;28;20225;-76
2022/02/07 11:55:13;;;;;;;4.25;1.30;;;8.20;99.90;;;;;;5051805;28;20207;-78
2022/02/07 11:57:41;;;;;;;8.25;2.63;;;8.30;99.90;;;;;;5052230;28;20238;-85
2022/02/07 12:00:20;;;;;;;5.07;1.80;;;8.30;99.90;;;;;;5052186;28;20167;-85
2022/02/07 12:02:49;;;;;;;9.15;2.13;;;8.30;99.90;;;;;;5052363;28;20277;-81
2022/02/07 12:05:22;;;;;;;5.68;1.92;;;8.30;99.90;;;;;;5052328;28;20174;-80
2022/02/07 12:08:22;;;;;;;8.98;1.65;;;8.30;99.90;;;;;;5051140;28;20237;-80
2022/02/07 12:11:05;;;;;;;4.05;1.00;;;8.40;99.90;;;;;;5048989;28;20608;-82
2022/02/07 12:13:39;;;;;;;7.10;1.33;;;8.40;99.90;;;;;;5052182;28;20598;-83
2022/02/07 12:16:18;;;;;;;11.23;2.03;;;8.40;99.90;;;;;;5052336;28;20670;-80
2022/02/07 12:19:06;;;;;;;2.90;1.60;;;8.40;99.90;;;;;;5051507;28;20524;-84
2022/02/07 12:21:32;;;;;;;5.53;1.52;;;8.30;99.90;;;;;;5056209;28;20187;-81
2022/02/07 12:24:01;;;;;;;5.90;1.67;;;8.30;99.90;;;;;;5056183;28;20186;-81
2022/02/07 12:26:28;;;;;;;8.57;1.45;;;8.30;99.90;;;;;;5055075;28;20163;-82
2022/02/07 12:28:59;;;;;;;6.10;1.83;;;8.40;99.90;;;;;;5055854;28;20163;-84
2022/02/07 12:31:26;;;;;;;7.50;1.70;;;8.40;99.90;;;;;;5055856;28;20170;-82
2022/02/07 12:34:00;;;;;;;5.07;1.30;;;8.30;99.90;;;;;;5055846;28;20572;-83
2022/02/07 12:36:28;;;;;;;6.57;2.33;;;8.30;99.90;;;;;;5055808;28;20185;-79
2022/02/07 12:38:55;;;;;;;9.25;1.85;;;8.30;99.90;;;;;;5055875;28;20163;-82
2022/02/07 12:41:26;;;;;;;4.70;1.27;;;8.40;99.90;;;;;;5054815;28;20168;-81
2022/02/07 12:43:54;;;;;;;4.63;1.15;;;8.30;99.90;;;;;;5055765;28;20560;-77
2022/02/07 12:46:24;;;;;;;3.95;1.02;;;8.20;99.90;;;;;;5055945;28;20533;-80
2022/02/07 12:48:55;;;;;;;5.30;1.65;;;8.10;99.90;;;;;;5055706;28;20201;-85
2022/02/07 12:51:31;;;;;;;3.72;1.63;;;8.20;99.90;;;;;;5054702;28;20163;-80
2022/02/07 12:53:58;;;;;;;3.70;1.60;;;8.30;99.90;;;;;;5053763;28;20256;-79
2022/02/07 12:56:29;;;;;;;6.35;2.00;;;8.40;99.90;;;;;;5053836;28;20178;-81
2022/02/07 12:58:55;;;;;;;6.75;2.00;;;8.50;99.90;;;;;;5054556;28;20168;-78
2022/02/07 13:01:28;;;;;;;4.63;1.40;;;8.50;99.90;;;;;;5054683;28;20167;-78
2022/02/07 13:04:00;;;;;;;4.63;1.15;;;8.60;99.90;;;;;;5054414;28;20240;-78
2022/02/07 13:06:48;;;;;;;10.32;1.10;;;8.40;99.90;;;;;;5054607;28;20159;-77
2022/02/07 13:09:24;;;;;;;3.33;1.02;;;8.40;99.90;;;;;;5047589;28;20194;-78
2022/02/07 13:12:01;;;;;;;10.35;2.13;;;8.50;99.90;;;;;;5054804;28;20171;-77
2022/02/07 13:14:29;;;;;;;8.02;2.00;;;8.60;99.90;;;;;;5053100;28;20203;-78
2022/02/07 13:16:55;;;;;;;4.18;1.30;;;8.60;99.90;;;;;;5054641;28;20163;-78
2022/02/07 13:19:21;;;;;;;0.98;0.73;;;8.50;99.90;;;;;;5053064;28;20254;-78
2022/02/07 13:21:53;;;;;;;5.88;1.30;;;8.60;99.90;;;;;;5054737;28;20186;-78
2022/02/07 13:24:22;;;;;;;6.95;1.30;;;8.70;99.90;;;;;;5054329;28;20163;-78
2022/02/07 13:26:56;;;;;;;4.88;2.78;;;8.80;99.90;;;;;;5054061;28;20274;-78
2022/02/07 13:29:51;;;;;;;2.80;1.50;;;8.70;99.90;;;;;;5054372;28;20178;-81
2022/02/07 13:32:18;;;;;;;4.20;1.70;;;8.60;99.90;;;;;;5033732;28;20195;-77
2022/02/07 13:34:46;;;;;;;5.45;1.35;;;8.50;99.90;;;;;;5054163;28;20195;-78
2022/02/07 13:37:17;;;;;;;2.75;0.82;;;8.60;99.90;;;;;;5053020;28;20648;-78
2022/02/07 13:40:08;;;;;;;7.35;1.30;;;8.70;99.90;;;;;;5053987;28;20179;-77
2022/02/07 13:42:38;;;;;;;1.85;1.20;;;8.70;99.90;;;;;;5054021;28;20194;-77
2022/02/07 13:45:11;;;;;;;9.75;1.60;;;8.80;99.90;;;;;;5053939;28;20429;-78
2022/02/07 13:47:40;;;;;;;6.50;1.15;;;8.70;99.90;;;;;;5053730;28;20632;-80
2022/02/07 13:50:09;;;;;;;7.40;1.10;;;8.70;99.90;;;;;;5054043;28;20163;-78
2022/02/07 13:52:39;;;;;;;6.65;1.15;;;8.60;99.90;;;;;;5052455;28;20208;-79
2022/02/07 13:55:12;;;;;;;6.88;1.20;;;8.60;99.90;;;;;;5054100;28;20300;-78
2022/02/07 13:57:53;;;;;;;3.83;1.40;;;8.60;99.90;;;;;;5052022;28;20164;-78
2022/02/07 14:00:21;;;;;;;3.65;1.50;;;8.50;99.90;;;;;;5053379;28;20163;-78
2022/02/07 14:02:47;;;;;;;7.05;1.45;;;8.50;99.90;;;;;;5053458;28;20546;-78
2022/02/07 14:05:13;;;;;;;9.70;1.55;;;8.60;99.90;;;;;;5053949;28;20473;-83
2022/02/07 14:07:53;;;;;;;7.03;1.20;;;8.60;99.90;;;;;;5053867;28;20199;-83
2022/02/07 14:10:21;;;;;;;7.05;1.85;;;8.70;99.90;;;;;;5053486;28;20230;-83
2022/02/07 14:12:46;;;;;;;11.65;1.60;;;8.70;99.90;;;;;;5053784;28;20190;-82
2022/02/07 14:15:12;;;;;;;9.88;1.73;;;8.80;99.90;;;;;;5053855;28;20202;-81
2022/02/07 14:17:43;;;;;;;7.75;1.70;;;8.70;99.90;;;;;;5054145;28;20175;-81
2022/02/07 14:20:11;;;;;;;9.88;1.63;;;8.70;99.90;;;;;;5053677;28;20163;-80
2022/02/07 14:22:37;;;;;;;9.13;1.13;;;8.70;99.90;;;;;;5053464;28;20199;-80
2022/02/07 14:25:03;;;;;;;5.90;1.25;;;8.80;99.90;;;;;;5052788;28;20182;-81
2022/02/07 14:27:31;;;;;;;3.47;1.10;;;8.80;99.90;;;;;;5052315;28;20503;-82
2022/02/07 14:29:57;;;;;;;6.75;1.25;;;8.90;99.90;;;;;;5053528;28;20221;-82
2022/02/07 14:32:23;;;;;;;7.55;1.52;;;8.90;99.90;;;;;;5053425;28;20199;-81
2022/02/07 14:34:49;;;;;;;10.32;1.08;;;8.80;99.90;;;;;;5053207;28;20285;-82
2022/02/07 14:37:14;;;;;;;3.83;1.33;;;8.70;99.90;;;;;;5053708;28;20202;-80
2022/02/07 14:39:40;;;;;;;2.88;0.95;;;8.60;99.90;;;;;;5053343;28;20250;-80
2022/02/07 14:42:07;;;;;;;3.97;1.77;;;8.60;99.90;;;;;;5053181;28;20163;-86
2022/02/07 14:44:43;;;;;;;5.20;1.70;;;8.60;99.90;;;;;;5052097;28;20159;-81
2022/02/07 14:47:14;;;;;;;3.92;1.30;;;8.70;99.90;;;;;;5053595;28;20163;-83
2022/02/07 14:49:40;;;;;;;4.88;1.23;;;8.70;99.90;;;;;;5053202;28;20615;-80
2022/02/07 14:52:05;;;;;;;5.45;1.50;;;8.70;99.90;;;;;;5053565;28;20178;-80
2022/02/07 14:54:34;;;;;;;3.42;1.58;;;8.80;99.90;;;;;;5053091;28;20995;-78
2022/02/07 14:57:01;;;;;;;5.78;1.50;;;8.70;99.90;;;;;;5052996;28;20236;-81
2022/02/07 14:59:27;;;;;;;4.68;2.30;;;8.70;99.90;;;;;;5052946;28;20168;-83
2022/02/07 15:01:53;;;;;;;4.78;1.23;;;8.60;99.90;;;;;;5052826;28;20162;-80
2022/02/07 15:04:20;;;;;;;6.32;1.50;;;8.60;99.90;;;;;;5053149;28;20623;-83
2022/02/07 15:06:46;;;;;;;3.85;1.17;;;8.60;99.90;;;;;;5051796;28;20186;-81
2022/02/07 15:09:12;;;;;;;12.02;1.35;;;8.60;99.90;;;;;;5052147;28;20574;-83
2022/02/07 15:11:37;;;;;;;7.00;1.45;;;8.60;99.90;;;;;;5052058;28;20232;-79
2022/02/07 15:14:03;;;;;;;8.95;1.30;;;8.60;99.90;;;;;;5052969;28;20215;-83
2022/02/07 15:16:29;;;;;;;7.47;2.20;;;8.60;99.90;;;;;;5052551;28;20217;-82
2022/02/07 15:18:54;;;;;;;9.90;1.58;;;8.60;99.90;;;;;;5051105;28;20175;-83
2022/02/07 15:21:22;;;;;;;8.60;1.60;;;8.60;99.90;;;;;;5050531;28;20171;-78
2022/02/07 15:23:48;;;;;;;7.03;1.70;;;8.70;99.90;;;;;;5051977;28;20190;-78
2022/02/07 15:26:14;;;;;;;6.03;2.13;;;8.70;99.90;;;;;;5052129;28;20167;-79
2022/02/07 15:28:40;;;;;;;5.18;2.05;;;8.70;99.90;;;;;;5051844;28;20209;-78
2022/02/07 15:31:05;;;;;;;11.07;1.55;;;8.70;99.90;;;;;;5052234;28;20167;-80
2022/02/07 15:33:42;;;;;;;4.07;1.70;;;8.70;99.90;;;;;;5051429;28;20202;-79
2022/02/07 15:36:09;;;;;;;4.22;1.30;;;8.60;99.90;;;;;;5068592;28;20166;-79
2022/02/07 15:38:35;;;;;;;14.88;2.15;;;8.60;99.90;;;;;;5072196;28;20158;-78